createdAt,value
2019-03-02T00:01:00.413Z,23.20
2019-03-02T00:03:31.783Z,21.97
2019-03-02T00:06:02.056Z,22.15
2019-03-02T00:08:31.521Z,21.85
2019-03-02T00:11:00.550Z,23.25
2019-03-02T00:13:29.502Z,22.70
2019-03-02T00:15:58.507Z,23.32
2019-03-02T00:18:29.125Z,23.22
2019-03-02T00:20:58.529Z,24.15
2019-03-02T00:23:27.481Z,22.77
2019-03-02T00:25:56.608Z,24.20
2019-03-02T00:28:26.137Z,25.17
2019-03-02T00:30:57.782Z,25.45
2019-03-02T00:33:26.308Z,23.52
2019-03-02T00:35:55.176Z,23.70
2019-03-02T00:38:24.138Z,24.60
2019-03-02T00:40:53.276Z,26.35
2019-03-02T00:43:23.721Z,26.00
2019-03-02T00:45:53.083Z,27.00
2019-03-02T00:48:22.264Z,26.35
2019-03-02T00:50:51.564Z,26.83
2019-03-02T00:53:21.064Z,26.80
2019-03-02T00:55:49.914Z,27.35
2019-03-02T00:58:18.949Z,27.60
2019-03-02T01:00:50.059Z,27.52
2019-03-02T01:03:18.574Z,28.47
2019-03-02T01:05:48.182Z,28.00
2019-03-02T01:08:17.484Z,27.35
2019-03-02T01:10:46.428Z,28.27
2019-03-02T01:13:16.774Z,27.20
2019-03-02T01:15:46.613Z,28.70
2019-03-02T01:18:15.483Z,28.45
2019-03-02T01:20:44.697Z,28.80
2019-03-02T01:23:14.296Z,30.00
2019-03-02T01:25:45.535Z,27.50
2019-03-02T01:28:14.040Z,28.38
2019-03-02T01:30:43.632Z,28.32
2019-03-02T01:33:12.932Z,29.15
2019-03-02T01:35:41.947Z,30.05
2019-03-02T01:38:11.533Z,29.05
2019-03-02T01:40:41.598Z,30.10
2019-03-02T01:43:10.600Z,28.20
2019-03-02T01:45:39.625Z,28.65
2019-03-02T01:48:08.832Z,28.55
2019-03-02T01:50:38.032Z,28.73
2019-03-02T01:53:09.925Z,28.25
2019-03-02T01:55:38.065Z,28.15
2019-03-02T01:58:07.360Z,30.32
2019-03-02T02:00:36.364Z,28.50
2019-03-02T02:03:08.473Z,29.30
2019-03-02T02:05:36.492Z,29.02
2019-03-02T02:08:06.096Z,29.32
2019-03-02T02:10:35.108Z,29.30
2019-03-02T02:13:06.288Z,28.70
2019-03-02T02:15:35.064Z,27.67
2019-03-02T02:18:04.143Z,28.12
2019-03-02T02:20:33.314Z,27.90
2019-03-02T02:23:02.339Z,27.73
2019-03-02T02:25:32.621Z,26.52
2019-03-02T02:28:02.438Z,25.37
2019-03-02T02:30:31.841Z,25.80
2019-03-02T02:33:04.183Z,26.00
2019-03-02T02:35:39.322Z,25.20
2019-03-02T02:38:03.627Z,25.75
2019-03-02T02:40:32.627Z,24.55
2019-03-02T02:43:01.586Z,25.20
2019-03-02T02:45:30.812Z,25.60
2019-03-02T02:47:59.819Z,24.50
2019-03-02T02:50:31.098Z,26.87
2019-03-02T02:53:06.285Z,24.70
2019-03-02T02:55:30.770Z,24.40
2019-03-02T02:57:59.789Z,25.10
2019-03-02T03:00:29.219Z,24.33
2019-03-02T03:02:58.265Z,24.50
2019-03-02T03:05:27.573Z,24.20
2019-03-02T03:07:56.955Z,24.35
2019-03-02T03:10:34.353Z,24.85
2019-03-02T03:13:04.258Z,24.47
2019-03-02T03:15:41.854Z,24.07
2019-03-02T03:18:14.430Z,23.50
2019-03-02T03:20:47.623Z,23.87
2019-03-02T03:23:12.689Z,23.32
2019-03-02T03:25:41.737Z,24.40
2019-03-02T03:28:11.036Z,25.12
2019-03-02T03:30:40.734Z,25.83
2019-03-02T03:33:10.065Z,25.05
2019-03-02T03:35:39.075Z,25.12
2019-03-02T03:38:08.740Z,24.85
2019-03-02T03:40:37.788Z,24.90
2019-03-02T03:43:06.824Z,25.02
2019-03-02T03:45:42.672Z,24.75
2019-03-02T03:48:06.961Z,24.30
2019-03-02T03:50:36.154Z,24.60
2019-03-02T03:53:05.761Z,24.90
2019-03-02T03:55:35.161Z,24.50
2019-03-02T03:58:04.196Z,25.67
2019-03-02T04:00:34.053Z,24.92
2019-03-02T04:03:04.020Z,25.00
2019-03-02T04:05:33.126Z,26.25
2019-03-02T04:08:02.171Z,26.77
2019-03-02T04:10:31.573Z,25.48
2019-03-02T04:13:04.884Z,25.75
2019-03-02T04:15:40.883Z,27.15
2019-03-02T04:18:02.748Z,26.75
2019-03-02T04:20:38.428Z,25.80
2019-03-02T04:23:10.276Z,24.55
2019-03-02T04:25:39.237Z,25.20
2019-03-02T04:28:08.296Z,26.80
2019-03-02T04:30:37.542Z,26.50
2019-03-02T04:33:07.658Z,25.90
2019-03-02T04:35:37.077Z,25.65
2019-03-02T04:38:06.096Z,25.73
2019-03-02T04:40:35.456Z,25.92
2019-03-02T04:43:04.775Z,27.07
2019-03-02T04:45:36.491Z,27.42
2019-03-02T04:48:04.749Z,25.85
2019-03-02T04:50:33.947Z,26.00
2019-03-02T04:53:03.196Z,27.07
2019-03-02T04:55:32.516Z,25.62
2019-03-02T04:58:02.149Z,24.87
2019-03-02T05:00:32.929Z,26.37
2019-03-02T05:03:02.544Z,24.30
2019-03-02T05:05:31.572Z,24.20
2019-03-02T05:08:01.921Z,32.05
2019-03-02T05:10:31.961Z,27.37
2019-03-02T05:13:01.269Z,25.45
2019-03-02T05:15:30.294Z,26.12
2019-03-02T05:17:59.865Z,24.43
2019-03-02T05:20:29.212Z,23.67
2019-03-02T05:22:58.460Z,23.92
2019-03-02T05:25:27.818Z,23.90
2019-03-02T05:27:57.064Z,24.13
2019-03-02T05:30:26.870Z,24.57
2019-03-02T05:32:57.212Z,21.68
2019-03-02T05:35:26.262Z,23.20
2019-03-02T05:37:55.307Z,25.12
2019-03-02T05:40:27.466Z,23.18
2019-03-02T05:42:55.075Z,24.40
2019-03-02T05:45:24.785Z,24.75
2019-03-02T05:47:54.058Z,23.75
2019-03-02T05:50:26.531Z,23.57
2019-03-02T05:52:55.317Z,22.98
2019-03-02T05:55:24.440Z,21.87
2019-03-02T05:57:53.987Z,22.25
2019-03-02T06:00:23.716Z,21.70
2019-03-02T06:02:52.671Z,21.87
2019-03-02T06:05:21.987Z,23.00
2019-03-02T06:07:53.880Z,21.52
2019-03-02T06:10:25.269Z,22.48
2019-03-02T06:12:53.270Z,23.40
2019-03-02T06:15:22.279Z,23.75
2019-03-02T06:17:51.488Z,21.73
2019-03-02T06:20:20.752Z,22.17
2019-03-02T06:22:52.303Z,22.30
2019-03-02T06:25:23.051Z,21.20
2019-03-02T06:27:52.132Z,21.90
2019-03-02T06:30:21.380Z,21.87
2019-03-02T06:32:50.732Z,21.50
2019-03-02T06:35:20.011Z,21.37
2019-03-02T06:37:49.059Z,22.32
2019-03-02T06:40:20.856Z,22.07
2019-03-02T06:42:49.146Z,21.50
2019-03-02T06:45:18.228Z,21.70
2019-03-02T06:47:47.556Z,22.37
2019-03-02T06:50:16.852Z,22.43
2019-03-02T06:52:45.894Z,22.00
2019-03-02T06:55:15.358Z,22.23
2019-03-02T06:57:46.267Z,21.40
2019-03-02T07:00:17.765Z,23.20
2019-03-02T07:02:47.138Z,22.15
2019-03-02T07:05:17.045Z,23.10
2019-03-02T07:07:46.352Z,22.45
2019-03-02T07:10:17.706Z,22.10
2019-03-02T07:12:48.161Z,23.20
2019-03-02T07:15:17.637Z,23.10
2019-03-02T07:18:08.042Z,22.95
2019-03-02T07:20:38.040Z,23.25
2019-03-02T07:23:07.335Z,24.37
2019-03-02T07:25:39.135Z,23.17
2019-03-02T07:28:07.994Z,23.60
2019-03-02T07:30:37.599Z,23.87
2019-03-02T07:33:07.810Z,24.60
2019-03-02T07:35:37.317Z,24.27
2019-03-02T07:38:08.289Z,24.70
2019-03-02T07:40:41.151Z,25.23
2019-03-02T07:43:09.679Z,24.20
2019-03-02T07:45:39.636Z,23.35
2019-03-02T07:48:08.937Z,23.95
2019-03-02T07:50:37.972Z,24.70
2019-03-02T07:53:07.435Z,24.52
2019-03-02T07:55:36.473Z,25.08
2019-03-02T07:58:05.648Z,24.72
2019-03-02T08:00:37.944Z,26.87
2019-03-02T08:03:05.703Z,27.70
2019-03-02T08:05:34.667Z,26.70
2019-03-02T08:08:03.731Z,26.43
2019-03-02T08:10:34.752Z,25.60
2019-03-02T08:13:03.842Z,26.35
2019-03-02T08:15:32.871Z,24.20
2019-03-02T08:18:01.924Z,23.32
2019-03-02T08:20:31.466Z,25.23
2019-03-02T08:23:00.532Z,24.82
2019-03-02T08:25:29.903Z,25.10
2019-03-02T08:27:58.992Z,24.80
2019-03-02T08:30:29.850Z,24.40
2019-03-02T08:32:59.198Z,24.25
2019-03-02T08:35:28.596Z,24.00
2019-03-02T08:37:57.648Z,23.73
2019-03-02T08:40:26.608Z,26.20
2019-03-02T08:42:55.973Z,26.30
2019-03-02T08:45:27.681Z,26.73
2019-03-02T08:47:56.467Z,25.60
2019-03-02T08:50:25.829Z,25.32
2019-03-02T08:52:55.433Z,26.30
2019-03-02T08:55:24.476Z,26.45
2019-03-02T08:57:53.933Z,25.07
2019-03-02T09:00:24.311Z,24.90
2019-03-02T09:02:55.038Z,25.65
2019-03-02T09:05:42.932Z,25.02
2019-03-02T09:07:55.174Z,24.63
2019-03-02T09:10:24.504Z,26.25
2019-03-02T09:12:57.912Z,26.37
2019-03-02T09:15:26.490Z,25.05
2019-03-02T09:17:57.870Z,25.55
2019-03-02T09:20:26.428Z,24.63
2019-03-02T09:23:00.416Z,24.23
2019-03-02T09:25:27.870Z,24.25
2019-03-02T09:27:57.632Z,25.30
2019-03-02T09:30:26.996Z,23.95
2019-03-02T09:32:56.607Z,24.32
2019-03-02T09:35:26.029Z,23.95
2019-03-02T09:37:55.035Z,23.60
2019-03-02T09:40:24.967Z,23.32
2019-03-02T09:42:54.181Z,24.00
2019-03-02T09:45:23.516Z,24.05
2019-03-02T09:47:52.683Z,23.77
2019-03-02T09:50:21.921Z,22.13
2019-03-02T09:52:51.451Z,22.50
2019-03-02T09:55:21.133Z,22.98
2019-03-02T09:57:50.348Z,23.25
2019-03-02T10:00:23.733Z,22.82
2019-03-02T10:02:52.162Z,22.22
2019-03-02T10:05:21.211Z,21.95
2019-03-02T10:07:50.731Z,22.83
2019-03-02T10:10:20.203Z,20.90
2019-03-02T10:12:51.463Z,21.27
2019-03-02T10:15:21.880Z,20.62
2019-03-02T10:17:51.275Z,22.58
2019-03-02T10:20:20.428Z,20.20
2019-03-02T10:22:49.469Z,20.77
2019-03-02T10:25:18.537Z,20.82
2019-03-02T10:27:48.161Z,20.50
2019-03-02T10:30:18.258Z,22.10
2019-03-02T10:32:47.580Z,20.30
2019-03-02T10:35:18.119Z,20.60
2019-03-02T10:37:47.572Z,20.60
2019-03-02T10:40:16.885Z,20.57
2019-03-02T10:42:45.980Z,21.52
2019-03-02T10:45:16.505Z,21.50
2019-03-02T10:47:45.840Z,22.75
2019-03-02T10:50:19.682Z,20.90
2019-03-02T10:52:49.002Z,19.65
2019-03-02T10:55:19.958Z,20.32
2019-03-02T10:57:49.689Z,18.70
2019-03-02T11:00:25.602Z,18.57
2019-03-02T11:02:57.279Z,18.12
2019-03-02T11:05:48.261Z,17.30
2019-03-02T11:08:36.313Z,18.20
2019-03-02T11:11:16.916Z,17.27
2019-03-02T11:14:04.349Z,17.70
2019-03-02T11:16:44.598Z,16.10
2019-03-02T11:19:23.949Z,16.80
2019-03-02T11:22:17.080Z,17.40
2019-03-02T11:25:05.176Z,16.90
2019-03-02T11:27:54.760Z,15.90
2019-03-02T11:30:51.836Z,16.30
2019-03-02T11:33:38.763Z,15.90
2019-03-02T11:36:31.942Z,15.25
2019-03-02T11:39:18.712Z,15.70
2019-03-02T11:41:54.084Z,15.50
2019-03-02T11:44:45.187Z,15.50
2019-03-02T11:47:33.012Z,15.10
2019-03-02T11:50:10.795Z,15.50
2019-03-02T11:53:17.725Z,15.30
2019-03-02T11:56:08.851Z,15.47
2019-03-02T11:59:05.895Z,15.10
2019-03-02T12:01:53.595Z,14.67
2019-03-02T12:04:31.396Z,16.17
2019-03-02T12:07:24.759Z,14.80
2019-03-02T12:10:05.234Z,14.70
2019-03-02T12:12:40.762Z,15.08
2019-03-02T12:15:34.929Z,14.03
2019-03-02T12:18:19.520Z,16.70
2019-03-02T12:21:00.588Z,14.28
2019-03-02T12:23:40.113Z,14.70
2019-03-02T12:26:28.217Z,14.58
2019-03-02T12:29:14.850Z,14.33
2019-03-02T12:32:03.861Z,13.93
2019-03-02T12:34:41.632Z,14.63
2019-03-02T12:37:37.315Z,14.70
2019-03-02T12:40:24.964Z,15.30
2019-03-02T12:43:16.076Z,14.78
2019-03-02T12:45:50.804Z,14.35
2019-03-02T12:48:44.065Z,14.78
2019-03-02T12:51:21.556Z,15.28
2019-03-02T12:54:12.663Z,15.25
2019-03-02T12:56:46.723Z,15.05
2019-03-02T12:59:39.576Z,14.80
2019-03-02T13:02:31.885Z,15.20
2019-03-02T13:05:29.644Z,14.78
2019-03-02T13:08:26.518Z,15.50
2019-03-02T13:11:12.888Z,15.13
2019-03-02T13:14:10.544Z,16.35
2019-03-02T13:16:59.407Z,14.95
2019-03-02T13:20:04.089Z,15.70
2019-03-02T13:22:40.400Z,15.30
2019-03-02T13:25:39.929Z,15.13
2019-03-02T13:28:41.768Z,14.93
2019-03-02T13:31:45.151Z,15.03
2019-03-02T13:34:32.760Z,15.77
2019-03-02T13:37:20.321Z,15.58
2019-03-02T13:40:06.143Z,15.10
2019-03-02T13:42:52.151Z,14.75
2019-03-02T13:45:31.846Z,16.10
2019-03-02T13:48:29.345Z,22.20
2019-03-02T13:51:17.956Z,15.25
2019-03-02T13:54:05.984Z,16.15
2019-03-02T13:57:06.015Z,14.73
2019-03-02T13:59:53.137Z,14.93
2019-03-02T14:02:40.429Z,15.32
2019-03-02T14:05:46.952Z,15.10
2019-03-02T14:08:39.778Z,14.78
2019-03-02T14:11:22.808Z,15.58
2019-03-02T14:14:14.539Z,15.48
2019-03-02T14:17:03.375Z,17.27
2019-03-02T14:19:55.091Z,25.90
2019-03-02T14:22:36.855Z,20.00
2019-03-02T14:25:25.095Z,18.15
2019-03-02T14:28:16.942Z,17.37
2019-03-02T14:31:19.782Z,18.53
2019-03-02T14:34:07.301Z,22.20
2019-03-02T14:36:51.146Z,21.23
2019-03-02T14:39:52.349Z,15.30
2019-03-02T14:42:35.912Z,13.90
2019-03-02T14:45:28.588Z,15.18
2019-03-02T14:48:29.434Z,13.53
2019-03-02T14:51:07.953Z,14.40
2019-03-02T14:53:55.714Z,14.03
2019-03-02T14:56:44.922Z,13.53
2019-03-02T14:59:32.798Z,13.55
2019-03-02T15:02:24.641Z,13.25
2019-03-02T15:05:16.172Z,12.60
2019-03-02T15:08:01.845Z,12.70
2019-03-02T15:10:51.164Z,12.80
2019-03-02T15:13:36.647Z,13.50
2019-03-02T15:16:25.139Z,12.95
2019-03-02T15:19:20.333Z,12.45
2019-03-02T15:22:27.894Z,13.10
2019-03-02T15:25:29.713Z,11.83
2019-03-02T15:28:09.779Z,13.43
2019-03-02T15:30:59.168Z,12.40
2019-03-02T15:33:46.381Z,12.75
2019-03-02T15:36:47.793Z,12.63
2019-03-02T15:39:49.387Z,12.70
2019-03-02T15:42:46.151Z,12.60
2019-03-02T15:45:34.750Z,13.07
2019-03-02T15:48:14.354Z,12.63
2019-03-02T15:50:54.455Z,12.33
2019-03-02T15:53:38.352Z,13.00
2019-03-02T15:56:25.874Z,12.40
2019-03-02T15:59:20.600Z,13.22
2019-03-02T16:02:18.438Z,13.28
2019-03-02T16:05:07.772Z,12.50
2019-03-02T16:08:14.102Z,12.50
2019-03-02T16:11:02.080Z,12.40
2019-03-02T16:13:56.076Z,12.88
2019-03-02T16:16:37.595Z,12.37
2019-03-02T16:19:16.011Z,12.65
2019-03-02T16:21:56.637Z,11.88
2019-03-02T16:24:45.955Z,12.78
2019-03-02T16:27:26.186Z,13.80
2019-03-02T16:30:23.144Z,14.00
2019-03-02T16:33:17.591Z,14.03
2019-03-02T16:36:17.735Z,14.13
2019-03-02T16:39:06.907Z,14.87
2019-03-02T16:41:54.372Z,15.60
2019-03-02T16:44:36.051Z,15.15
2019-03-02T16:47:22.516Z,14.85
2019-03-02T16:50:06.712Z,16.50
2019-03-02T16:52:52.580Z,15.90
2019-03-02T16:55:45.207Z,16.07
2019-03-02T16:58:27.429Z,16.48
2019-03-02T17:01:14.652Z,16.60
2019-03-02T17:03:55.308Z,16.70
2019-03-02T17:06:42.740Z,17.90
2019-03-02T17:09:19.440Z,17.50
2019-03-02T17:12:08.498Z,21.73
2019-03-02T17:15:03.072Z,19.20
2019-03-02T17:17:54.275Z,19.67
2019-03-02T17:20:45.194Z,16.73
2019-03-02T17:23:23.968Z,16.20
2019-03-02T17:25:58.420Z,17.73
2019-03-02T17:28:46.776Z,17.48
2019-03-02T17:31:24.584Z,17.00
2019-03-02T17:34:11.428Z,16.25
2019-03-02T17:37:05.841Z,16.32
2019-03-02T17:39:44.180Z,15.93
2019-03-02T17:42:31.778Z,18.17
2019-03-02T17:45:21.051Z,18.42
2019-03-02T17:48:08.187Z,18.75
2019-03-02T17:50:59.528Z,16.23
2019-03-02T17:53:49.089Z,16.67
2019-03-02T17:56:25.959Z,16.35
2019-03-02T17:59:13.969Z,17.20
2019-03-02T18:02:05.015Z,17.00
2019-03-02T18:04:39.344Z,14.87
2019-03-02T18:07:15.405Z,14.00
2019-03-02T18:10:08.342Z,12.90
2019-03-02T18:12:54.632Z,14.70
2019-03-02T18:15:42.876Z,13.17
2019-03-02T18:18:12.275Z,12.87
2019-03-02T18:20:41.576Z,13.77
2019-03-02T18:23:10.880Z,13.40
2019-03-02T18:25:39.916Z,13.00
2019-03-02T18:28:10.071Z,14.57
2019-03-02T18:30:42.347Z,14.57
2019-03-02T18:33:44.497Z,14.63
2019-03-02T18:36:13.542Z,12.97
2019-03-02T18:38:44.646Z,12.50
2019-03-02T18:41:16.662Z,13.63
2019-03-02T18:43:45.850Z,13.03
2019-03-02T18:49:15.988Z,13.30
2019-03-02T19:16:54.412Z,12.20
2019-03-02T19:19:23.448Z,15.88
2019-03-02T19:21:53.133Z,15.75
2019-03-02T19:24:22.380Z,16.70
2019-03-02T19:26:51.749Z,15.50
2019-03-02T19:29:21.084Z,16.25
2019-03-02T19:31:50.850Z,16.10
2019-03-02T19:34:19.905Z,15.50
2019-03-02T19:36:49.026Z,15.00
2019-03-02T19:39:21.816Z,15.00
2019-03-02T19:41:51.534Z,16.10
2019-03-02T19:44:20.572Z,18.53
2019-03-02T19:46:49.933Z,16.23
2019-03-02T19:49:19.321Z,15.90
2019-03-02T19:51:48.365Z,16.70
2019-03-02T19:54:18.437Z,18.77
2019-03-02T19:56:48.149Z,17.83
2019-03-02T19:59:17.853Z,16.93
2019-03-02T20:01:49.944Z,17.13
2019-03-02T20:04:20.212Z,16.87
2019-03-02T20:06:49.239Z,16.33
2019-03-02T20:09:19.521Z,16.42
2019-03-02T20:11:48.852Z,16.07
2019-03-02T20:14:17.840Z,15.93
2019-03-02T20:16:47.085Z,14.73
2019-03-02T20:19:16.080Z,14.98
2019-03-02T20:21:45.439Z,14.58
2019-03-02T20:24:14.840Z,14.80
2019-03-02T20:26:43.856Z,14.90
2019-03-02T20:29:13.209Z,13.10
2019-03-02T20:31:43.125Z,14.10
2019-03-02T20:34:12.191Z,13.88
2019-03-02T20:36:41.224Z,13.38
2019-03-02T20:39:10.675Z,13.13
2019-03-02T20:41:39.746Z,12.90
2019-03-02T20:44:08.826Z,13.10
2019-03-02T20:46:37.770Z,12.65
2019-03-02T20:49:06.659Z,14.10
2019-03-02T20:51:36.009Z,14.73
2019-03-02T20:54:05.145Z,13.80
2019-03-02T20:56:34.812Z,13.53
2019-03-02T20:59:05.241Z,13.08
2019-03-02T21:01:34.948Z,13.45
2019-03-02T21:04:04.561Z,12.93
2019-03-02T21:06:33.852Z,11.95
2019-03-02T21:09:04.687Z,12.78
2019-03-02T21:11:34.122Z,12.50
2019-03-02T21:14:03.491Z,12.15
2019-03-02T21:16:32.908Z,12.33
2019-03-02T21:19:02.881Z,12.60
2019-03-02T21:21:32.520Z,12.35
2019-03-02T21:24:01.592Z,12.10
2019-03-02T21:26:31.012Z,11.90
2019-03-02T21:29:00.726Z,11.57
2019-03-02T21:31:29.768Z,11.97
2019-03-02T21:33:59.117Z,11.60
2019-03-02T21:36:28.075Z,11.30
2019-03-02T21:38:56.960Z,12.23
2019-03-02T21:41:25.950Z,11.88
2019-03-02T21:43:54.993Z,11.35
2019-03-02T21:46:24.035Z,11.53
2019-03-02T21:48:53.099Z,11.00
2019-03-02T21:51:23.468Z,11.10
2019-03-02T21:53:52.773Z,11.48
2019-03-02T21:56:21.916Z,11.40
2019-03-02T21:58:51.225Z,11.40
2019-03-02T22:01:20.493Z,11.45
2019-03-02T22:03:49.460Z,11.30
2019-03-02T22:06:19.396Z,11.48
2019-03-02T22:08:48.792Z,10.08
2019-03-02T22:11:17.876Z,10.45
2019-03-02T22:13:46.903Z,10.60
2019-03-02T22:16:16.288Z,10.85
2019-03-02T22:18:45.321Z,10.68
2019-03-02T22:21:15.019Z,10.00
2019-03-02T22:23:44.396Z,9.85
2019-03-02T22:26:13.728Z,10.28
2019-03-02T22:28:43.868Z,10.15
2019-03-02T22:31:12.849Z,10.00
2019-03-02T22:33:42.224Z,9.40
2019-03-02T22:36:11.263Z,9.10
2019-03-02T22:38:40.912Z,10.03
2019-03-02T22:41:10.611Z,10.20
2019-03-02T22:43:39.648Z,10.10
2019-03-02T22:46:08.678Z,9.70
2019-03-02T22:48:38.349Z,8.63
2019-03-02T22:51:08.597Z,9.70
2019-03-02T22:53:37.776Z,10.25
2019-03-02T22:56:06.736Z,10.40
2019-03-02T22:58:34.940Z,9.80
2019-03-02T23:01:42.881Z,9.70
2019-03-02T23:04:11.933Z,9.85
2019-03-02T23:06:41.245Z,10.35
2019-03-02T23:09:12.032Z,10.55
2019-03-02T23:11:41.328Z,10.50
2019-03-02T23:14:10.355Z,9.63
2019-03-02T23:16:39.329Z,9.80
2019-03-02T23:19:08.725Z,8.88
2019-03-02T23:21:38.117Z,9.80
2019-03-02T23:24:07.520Z,9.00
2019-03-02T23:26:36.871Z,9.05
2019-03-02T23:29:06.933Z,8.53
2019-03-02T23:31:36.553Z,9.40
2019-03-02T23:34:05.618Z,8.90
2019-03-02T23:36:35.142Z,8.25
2019-03-02T23:39:05.747Z,8.30
2019-03-02T23:41:35.425Z,9.05
2019-03-02T23:44:04.780Z,8.50
2019-03-02T23:46:34.801Z,8.47
2019-03-02T23:49:04.243Z,7.92
2019-03-02T23:51:33.282Z,8.67
2019-03-02T23:54:02.653Z,8.18
2019-03-02T23:56:31.992Z,8.20
2019-03-02T23:59:01.302Z,8.10
